Time;durP1;ratioP1;P1;durP2;ratioP2;P2;SDS_P1;SDS_P2;PMS_P1;PMS_P2;Temp;Humidity;BMP_temperature;BMP_pressure;BME280_temperature;BME280_humidity;BME280_pressure;Samples;Min_cycle;Max_cycle;Signal;HPM_P1;HPM_P2
2021/12/24 00:00:43;;;;;;;;;25.50;20.50;;;;;10.80;71.87;100311.44;5136473;27;45669;-82
2021/12/24 00:03:08;;;;;;;;;21.75;20.00;;;;;10.72;71.81;100291.06;5136850;27;45539;-80
2021/12/24 00:05:34;;;;;;;;;26.75;23.75;;;;;11.10;71.75;100353.66;5116407;27;48346;-82
2021/12/24 00:08:00;;;;;;;;;29.25;23.50;;;;;10.83;71.79;100314.66;5136194;27;46424;-82
2021/12/24 00:10:26;;;;;;;;;29.75;26.25;;;;;11.11;71.76;100359.72;5117755;27;45751;-82
2021/12/24 00:13:02;;;;;;;;;30.25;27.00;;;;;11.10;71.90;100355.44;5136691;27;45916;-82
2021/12/24 00:18:09;;;;;;;;;26.00;22.25;;;;;11.05;72.29;100337.44;5135753;27;46212;-82
2021/12/24 00:23:28;;;;;;;;;26.00;24.25;;;;;11.10;71.89;100327.44;5136160;27;45463;-82
2021/12/24 00:36:25;;;;;;;;;29.75;27.25;;;;;11.08;71.98;100313.59;5138675;27;46003;-82
2021/12/24 00:38:51;;;;;;;;;33.00;30.50;;;;;11.19;71.79;100321.47;5137717;27;45722;-82
2021/12/24 00:41:16;;;;;;;;;27.50;25.50;;;;;11.16;71.99;100316.47;5136663;27;45639;-82
2021/12/24 00:43:41;;;;;;;;;35.50;28.00;;;;;11.20;71.91;100317.06;5136123;27;45690;-82
2021/12/24 00:46:07;;;;;;;;;29.75;27.00;;;;;11.18;71.77;100303.22;5116483;27;47466;-81
2021/12/24 00:48:32;;;;;;;;;28.50;26.50;;;;;11.22;71.78;100312.53;5135491;27;46441;-82
2021/12/24 00:56:10;;;;;;;;;27.75;25.25;;;;;11.23;71.73;100298.44;5135646;27;45656;-83
2021/12/24 00:58:37;;;;;;;;;29.00;25.75;;;;;11.17;71.72;100283.22;5135786;27;46588;-82
2021/12/24 01:01:05;;;;;;;;;29.25;27.00;;;;;11.14;71.83;100262.47;5135999;27;45843;-81
2021/12/24 01:03:30;;;;;;;;;28.75;26.25;;;;;11.11;71.75;100257.47;5136177;27;45743;-83
2021/12/24 01:05:56;;;;;;;;;25.75;24.75;;;;;11.19;71.70;100262.94;5135643;27;46312;-83
2021/12/24 01:08:22;;;;;;;;;30.75;27.50;;;;;11.24;71.76;100263.41;5135673;27;46159;-81
2021/12/24 01:10:53;;;;;;;;;30.75;25.00;;;;;11.24;71.58;100258.16;5135280;27;45755;-81
2021/12/24 01:13:19;;;;;;;;;27.25;25.00;;;;;11.17;71.64;100246.50;5135841;27;45623;-81
2021/12/24 01:18:37;;;;;;;;;28.00;26.25;;;;;11.23;71.73;100269.59;5138677;27;45622;-81
2021/12/24 01:23:37;;;;;;;;;30.25;24.75;;;;;11.11;71.56;100245.22;5139242;27;45615;-82
2021/12/24 01:26:07;;;;;;;;;29.75;25.00;;;;;11.23;71.67;100262.56;5138802;27;45548;-81
2021/12/24 01:44:33;;;;;;;;;30.00;23.50;;;;;11.18;71.65;100259.47;5138171;27;45677;-81
2021/12/24 01:47:03;;;;;;;;;30.00;26.75;;;;;11.16;71.70;100268.44;5138051;27;45579;-81
2021/12/24 01:49:28;;;;;;;;;25.25;23.25;;;;;11.14;71.60;100268.56;5119309;27;48653;-81
2021/12/24 01:51:55;;;;;;;;;29.25;27.25;;;;;11.14;71.68;100271.16;5138245;27;46065;-80
2021/12/24 01:54:21;;;;;;;;;26.25;23.25;;;;;11.07;71.51;100266.50;5138302;27;45499;-80
2021/12/24 01:56:47;;;;;;;;;26.25;23.00;;;;;11.07;71.64;100254.25;5138790;27;46583;-80
2021/12/24 01:59:14;;;;;;;;;24.50;23.50;;;;;11.02;71.65;100245.06;5140294;27;45613;-81
2021/12/24 02:01:39;;;;;;;;;32.25;28.75;;;;;11.12;71.58;100267.00;5140229;27;45816;-82
2021/12/24 02:04:06;;;;;;;;;27.00;23.50;;;;;11.06;71.68;100252.59;5139330;27;45683;-82
2021/12/24 02:06:32;;;;;;;;;25.75;25.00;;;;;11.12;71.64;100269.63;5140330;27;46517;-81
2021/12/24 02:08:58;;;;;;;;;26.25;23.50;;;;;11.07;71.67;100269.13;5141459;27;45954;-81
2021/12/24 02:11:24;;;;;;;;;26.00;21.00;;;;;11.09;71.53;100268.06;5140327;27;45595;-81
2021/12/24 02:13:51;;;;;;;;;31.00;26.50;;;;;11.03;71.47;100254.63;5140074;27;45563;-81
2021/12/24 02:29:59;;;;;;;;;32.25;25.25;;;;;10.90;71.64;100210.22;5137008;27;45781;-81
2021/12/24 02:32:24;;;;;;;;;29.50;27.50;;;;;10.99;71.52;100222.56;5137423;27;45634;-81
2021/12/24 02:34:50;;;;;;;;;30.00;24.75;;;;;10.96;71.55;100229.84;5118876;27;45507;-81
2021/12/24 02:37:16;;;;;;;;;27.25;24.50;;;;;11.04;71.53;100240.56;5137176;27;46444;-80
2021/12/24 02:39:42;;;;;;;;;27.50;25.00;;;;;11.04;71.63;100235.31;5118641;27;47543;-81
2021/12/24 02:42:16;;;;;;;;;27.00;24.00;;;;;11.05;71.66;100231.75;5118884;27;45933;-81
2021/12/24 02:44:44;;;;;;;;;32.00;28.75;;;;;11.01;71.51;100222.47;5137712;27;45819;-81
2021/12/24 02:47:36;;;;;;;;;25.25;22.75;;;;;10.96;71.55;100219.38;5137383;27;46187;-81
2021/12/24 02:55:10;;;;;;;;;27.00;24.00;;;;;11.01;71.67;100225.09;5137437;27;45615;-81
2021/12/24 02:57:38;;;;;;;;;25.50;23.75;;;;;11.04;71.61;100220.41;5137370;27;45606;-80
2021/12/24 03:00:14;;;;;;;;;28.00;26.25;;;;;11.04;71.70;100224.81;5137561;27;45680;-81
2021/12/24 03:02:43;;;;;;;;;24.50;22.00;;;;;11.04;71.53;100225.66;5118500;27;45849;-81
2021/12/24 03:05:10;;;;;;;;;30.25;28.50;;;;;11.00;71.47;100226.03;5137267;27;45667;-81
2021/12/24 03:07:35;;;;;;;;;28.25;25.50;;;;;10.96;71.59;100220.19;5137108;27;45528;-81
2021/12/24 03:10:03;;;;;;;;;29.25;25.75;;;;;11.04;71.66;100232.69;5137286;27;46058;-79
2021/12/24 03:12:30;;;;;;;;;27.75;24.00;;;;;11.05;71.58;100224.72;5138216;27;45554;-79
2021/12/24 03:14:55;;;;;;;;;32.25;27.75;;;;;10.86;71.59;100193.88;5137744;27;45694;-82
2021/12/24 03:17:24;;;;;;;;;28.75;25.75;;;;;11.00;71.73;100215.56;5136684;27;47227;-81
2021/12/24 03:19:51;;;;;;;;;32.00;28.50;;;;;11.05;71.62;100227.34;5137136;27;45569;-81
2021/12/24 03:25:20;;;;;;;;;30.25;28.00;;;;;10.97;71.65;100202.66;5093248;27;45636;-81
2021/12/24 03:27:46;;;;;;;;;31.50;26.25;;;;;11.06;71.41;100212.44;5093512;27;45862;-81
2021/12/24 03:30:11;;;;;;;;;32.50;25.00;;;;;11.06;71.52;100196.72;5093339;27;46844;-81
2021/12/24 03:32:37;;;;;;;;;30.00;26.00;;;;;10.99;71.57;100185.88;5094106;27;45696;-81
2021/12/24 03:35:03;;;;;;;;;25.00;24.00;;;;;11.05;71.61;100188.00;5094882;27;45910;-81
2021/12/24 03:37:29;;;;;;;;;28.25;23.50;;;;;10.98;71.66;100167.66;5095039;27;46504;-81
2021/12/24 03:39:54;;;;;;;;;27.00;23.50;;;;;10.81;71.53;100159.34;5096251;27;45612;-80
2021/12/24 03:42:20;;;;;;;;;27.50;20.25;;;;;11.05;71.70;100195.03;5095875;27;45762;-80
2021/12/24 03:44:53;;;;;;;;;25.50;23.25;;;;;11.07;71.73;100201.81;5095916;27;45738;-81
2021/12/24 03:47:20;;;;;;;;;28.00;23.50;;;;;11.08;71.68;100193.00;5093633;27;45931;-80
2021/12/24 03:54:59;;;;;;;;;23.00;22.25;;;;;11.02;71.56;100176.91;5093188;27;45648;-82
2021/12/24 03:57:35;;;;;;;;;24.25;20.25;;;;;11.09;71.71;100181.56;5136302;27;46637;-79
2021/12/24 04:00:13;;;;;;;;;28.50;25.50;;;;;11.09;71.71;100173.69;5136958;27;45693;-81
2021/12/24 04:02:40;;;;;;;;;27.25;23.50;;;;;11.09;71.71;100165.84;5137042;27;45732;-82
2021/12/24 04:05:06;;;;;;;;;24.50;22.25;;;;;11.10;71.88;100169.28;5122592;27;45614;-82
2021/12/24 04:07:32;;;;;;;;;26.50;23.75;;;;;11.09;71.66;100170.25;5097259;27;47796;-81
2021/12/24 04:10:09;;;;;;;;;28.50;24.50;;;;;11.00;71.80;100150.03;5096949;27;47600;-81
2021/12/24 04:12:35;;;;;;;;;33.00;25.00;;;;;11.11;71.65;100157.84;5115551;27;45873;-81
2021/12/24 04:15:01;;;;;;;;;25.75;23.50;;;;;11.11;71.68;100160.47;5115451;27;45508;-81
2021/12/24 04:17:31;;;;;;;;;28.25;23.75;;;;;11.12;71.81;100162.16;5115092;27;45629;-81
2021/12/24 04:25:27;;;;;;;;;25.25;22.00;;;;;11.01;71.60;100130.72;5115333;27;45659;-82
2021/12/24 04:27:56;;;;;;;;;25.50;22.50;;;;;11.13;71.78;100140.19;5115471;27;45640;-80
2021/12/24 04:30:26;;;;;;;;;26.25;23.25;;;;;11.07;71.67;100122.34;5115855;27;46217;-81
2021/12/24 04:32:59;;;;;;;;;27.25;22.75;;;;;11.07;71.73;100114.47;5115819;27;45576;-80
2021/12/24 04:51:32;;;;;;;;;25.50;22.25;;;;;10.97;71.87;100077.69;5117527;27;46091;-81
2021/12/24 05:04:38;;;;;;;;;25.25;23.50;;;;;11.14;71.86;100106.00;5140929;27;45705;-81
2021/12/24 05:07:28;;;;;;;;;24.00;21.75;;;;;11.14;72.08;100097.28;5148893;27;45641;-82
2021/12/24 05:09:52;;;;;;;;;23.50;22.50;;;;;11.07;71.85;100103.97;5147526;27;46878;-80
2021/12/24 05:12:18;;;;;;;;;27.50;25.25;;;;;11.05;71.88;100103.28;5140232;27;45583;-78
2021/12/24 05:14:43;;;;;;;;;23.50;22.25;;;;;11.11;71.99;100102.81;5141056;27;45500;-80
2021/12/24 05:17:35;;;;;;;;;29.50;23.75;;;;;11.14;71.86;100097.28;5140963;27;45880;-80
2021/12/24 05:22:44;;;;;;;;;24.50;21.75;;;;;11.10;71.87;100098.50;5138566;27;45720;-81
2021/12/24 05:25:10;;;;;;;;;27.25;25.25;;;;;11.03;71.86;100082.44;5141214;27;45603;-80
2021/12/24 05:27:36;;;;;;;;;28.25;25.50;;;;;11.14;71.96;100092.06;5141344;27;45792;-81
2021/12/24 05:30:04;;;;;;;;;25.50;23.25;;;;;11.13;72.04;100096.47;5140111;27;46515;-81
2021/12/24 05:32:29;;;;;;;;;26.50;21.75;;;;;10.93;71.97;100056.16;5140094;27;47170;-80
2021/12/24 05:34:54;;;;;;;;;28.50;23.00;;;;;11.01;71.91;100062.56;5139994;27;45607;-81
2021/12/24 05:37:20;;;;;;;;;27.75;22.50;;;;;11.11;72.01;100081.84;5139709;27;45487;-79
2021/12/24 05:39:45;;;;;;;;;26.75;25.50;;;;;11.13;72.06;100091.22;5120333;27;48495;-79
2021/12/24 05:42:11;;;;;;;;;26.25;22.00;;;;;11.13;72.11;100095.63;5139016;27;45462;-81
2021/12/24 05:44:36;;;;;;;;;27.25;23.75;;;;;10.94;72.16;100057.81;5139424;27;45793;-81
2021/12/24 05:47:02;;;;;;;;;20.75;19.75;;;;;11.11;72.22;100087.91;5139217;27;45708;-81
2021/12/24 05:49:28;;;;;;;;;23.50;21.75;;;;;11.12;72.17;100094.00;5120080;27;48936;-81
2021/12/24 05:51:53;;;;;;;;;27.25;21.25;;;;;11.00;72.35;100074.00;5119976;27;47105;-81
2021/12/24 05:54:19;;;;;;;;;25.50;20.50;;;;;11.11;71.97;100100.19;5139268;27;45604;-82
2021/12/24 05:56:45;;;;;;;;;25.25;24.00;;;;;11.05;72.29;100104.13;5139915;27;45738;-80
2021/12/24 05:59:14;;;;;;;;;27.50;22.25;;;;;11.10;72.41;100109.00;5140082;27;45403;-80
2021/12/24 06:01:39;;;;;;;;;24.50;21.00;;;;;11.09;72.42;100115.19;5139670;27;46040;-80
2021/12/24 06:04:05;;;;;;;;;20.00;17.75;;;;;11.07;72.28;100111.84;5138066;27;45543;-82
2021/12/24 06:06:31;;;;;;;;;22.75;20.25;;;;;11.06;72.74;100110.22;5138690;27;45562;-82
2021/12/24 06:08:56;;;;;;;;;22.75;21.25;;;;;11.03;72.57;100102.56;5138733;27;46712;-79
2021/12/24 06:11:22;;;;;;;;;23.75;21.50;;;;;11.05;72.79;100109.38;5138370;27;45523;-81
2021/12/24 06:13:52;;;;;;;;;21.25;18.50;;;;;11.05;72.58;100112.00;5138381;27;45553;-81
2021/12/24 06:16:18;;;;;;;;;22.00;22.00;;;;;11.06;72.78;100120.69;5138215;27;45735;-80
2021/12/24 06:18:44;;;;;;;;;24.25;21.50;;;;;11.05;72.67;100119.88;5138366;27;45575;-81
2021/12/24 06:21:11;;;;;;;;;24.25;21.25;;;;;10.97;72.85;100103.91;5138188;27;45858;-80
2021/12/24 06:23:38;;;;;;;;;20.00;17.00;;;;;10.87;72.95;100085.47;5138466;27;45842;-81
2021/12/24 06:26:05;;;;;;;;;23.00;21.50;;;;;11.04;72.92;100104.25;5137933;27;45554;-81
2021/12/24 06:28:31;;;;;;;;;25.25;20.00;;;;;11.08;72.89;100105.66;5137850;27;45638;-80
2021/12/24 06:30:56;;;;;;;;;21.25;19.00;;;;;11.09;72.95;100108.16;5137747;27;45686;-81
2021/12/24 06:33:22;;;;;;;;;20.50;16.25;;;;;11.09;73.06;100092.44;5137699;27;45460;-81
2021/12/24 06:39:09;;;;;;;;;23.75;20.75;;;;;11.08;73.10;100089.94;5137661;27;45609;-81
2021/12/24 06:41:35;;;;;;;;;23.50;20.25;;;;;11.11;73.11;100084.44;5140174;27;45699;-80
2021/12/24 06:44:01;;;;;;;;;25.00;21.00;;;;;11.12;73.27;100091.38;5140463;27;45627;-80
2021/12/24 06:46:27;;;;;;;;;19.75;19.00;;;;;11.09;73.35;100083.72;5140311;27;45576;-81
2021/12/24 06:48:56;;;;;;;;;20.25;18.00;;;;;11.13;73.30;100080.72;5138983;27;45622;-81
2021/12/24 06:51:22;;;;;;;;;23.50;20.25;;;;;11.14;73.27;100082.41;5137718;27;46514;-81
2021/12/24 06:53:49;;;;;;;;;23.50;21.00;;;;;11.13;73.25;100077.28;5137687;27;45818;-81
2021/12/24 06:56:15;;;;;;;;;20.50;18.75;;;;;11.17;73.24;100092.66;5137654;27;45679;-80
2021/12/24 06:58:41;;;;;;;;;23.75;21.75;;;;;11.14;73.52;100086.81;5137497;27;45716;-81
2021/12/24 07:01:06;;;;;;;;;20.00;16.00;;;;;10.90;73.51;100040.66;5137722;27;45540;-80
2021/12/24 07:03:33;;;;;;;;;20.50;17.00;;;;;11.18;73.48;100086.44;5137493;27;45635;-81
2021/12/24 07:09:34;;;;;;;;;15.00;13.75;;;;;11.18;73.59;100083.81;5135350;27;46535;-79
2021/12/24 07:11:59;;;;;;;;;16.25;15.00;;;;;11.16;73.61;100082.28;5137415;27;46014;-81
2021/12/24 07:14:25;;;;;;;;;19.00;16.25;;;;;11.18;73.60;100086.44;5136954;27;45987;-80
2021/12/24 07:16:51;;;;;;;;;15.00;13.25;;;;;11.18;73.73;100077.72;5137405;27;45552;-81
2021/12/24 07:19:16;;;;;;;;;15.00;14.25;;;;;11.19;73.75;100088.09;5137039;27;45610;-81
2021/12/24 07:21:42;;;;;;;;;17.00;15.50;;;;;11.19;73.68;100080.22;5136971;27;45964;-80
2021/12/24 07:24:08;;;;;;;;;14.25;14.00;;;;;11.10;73.69;100067.06;5137081;27;45724;-81
2021/12/24 07:26:34;;;;;;;;;18.50;16.25;;;;;11.21;73.84;100086.19;5137317;27;45753;-80
2021/12/24 07:29:01;;;;;;;;;16.50;14.50;;;;;11.22;73.80;100081.78;5137848;27;48651;-80
2021/12/24 07:31:26;;;;;;;;;14.00;13.25;;;;;11.22;73.82;100081.78;5139381;27;46713;-80
2021/12/24 07:33:52;;;;;;;;;15.75;13.50;;;;;11.22;73.82;100066.88;5120247;27;45759;-80
2021/12/24 07:39:39;;;;;;;;;13.75;13.00;;;;;11.16;73.87;100049.03;5136531;27;46120;-81
2021/12/24 07:42:05;;;;;;;;;12.00;10.00;;;;;11.22;74.04;100066.88;5136713;27;45593;-81
2021/12/24 07:44:33;;;;;;;;;10.25;10.25;;;;;11.23;73.95;100083.44;5136943;27;45543;-81
2021/12/24 07:47:01;;;;;;;;;12.75;11.25;;;;;11.24;73.96;100079.84;5136950;27;45519;-82
2021/12/24 07:54:22;;;;;;;;;12.00;12.00;;;;;11.07;74.07;100052.41;5135386;27;45665;-81
2021/12/24 07:56:48;;;;;;;;;7.00;6.50;;;;;11.11;74.17;100066.09;5117472;27;46004;-81
2021/12/24 07:59:15;;;;;;;;;9.50;9.00;;;;;11.19;74.00;100074.16;5137163;27;46518;-81
2021/12/24 08:01:43;;;;;;;;;12.25;9.50;;;;;11.17;74.21;100068.22;5137309;27;46089;-81
2021/12/24 08:04:09;;;;;;;;;11.25;9.00;;;;;11.09;74.09;100050.50;5137550;27;45756;-81
2021/12/24 08:09:56;;;;;;;;;12.50;9.50;;;;;11.19;74.25;100050.56;5124874;27;46043;-80
2021/12/24 08:12:21;;;;;;;;;12.25;9.50;;;;;11.24;74.18;100057.09;5116597;27;45615;-81
2021/12/24 08:14:47;;;;;;;;;11.50;9.00;;;;;11.22;74.01;100050.31;5116726;27;45645;-81
2021/12/24 08:17:12;;;;;;;;;11.00;10.00;;;;;11.29;74.22;100060.16;5115283;27;45718;-81
2021/12/24 08:19:38;;;;;;;;;11.50;10.50;;;;;11.30;74.30;100059.19;5116129;27;46476;-81
2021/12/24 08:22:05;;;;;;;;;10.00;8.50;;;;;11.25;74.41;100044.81;5116165;27;45771;-81
2021/12/24 08:24:30;;;;;;;;;12.00;11.00;;;;;11.14;74.44;100023.88;5096282;27;45842;-81
2021/12/24 08:26:57;;;;;;;;;9.50;9.00;;;;;11.31;74.30;100058.25;5116747;27;45560;-81
2021/12/24 08:29:22;;;;;;;;;11.75;9.00;;;;;11.32;74.45;100067.78;5118809;27;45593;-84
2021/12/24 08:31:49;;;;;;;;;8.25;8.00;;;;;11.20;74.53;100039.13;5100115;27;47748;-82
2021/12/24 08:34:17;;;;;;;;;13.25;9.75;;;;;11.27;74.34;100056.84;5118819;27;45663;-81
2021/12/24 08:40:05;;;;;;;;;14.50;8.00;;;;;11.39;74.48;100054.97;5118845;27;45586;-81
2021/12/24 08:42:31;;;;;;;;;12.00;9.25;;;;;11.33;74.46;100045.03;5119571;27;45545;-84
2021/12/24 08:44:56;;;;;;;;;12.50;10.00;;;;;11.42;74.46;100046.88;5117857;27;45703;-82
2021/12/24 08:47:22;;;;;;;;;13.00;10.00;;;;;11.44;74.38;100044.97;5119563;27;45488;-79
2021/12/24 08:49:47;;;;;;;;;10.75;9.25;;;;;11.45;74.39;100036.09;5119511;27;46440;-81
2021/12/24 08:55:35;;;;;;;;;9.00;8.50;;;;;11.33;74.56;100014.38;5118400;27;45511;-80
2021/12/24 08:58:02;;;;;;;;;11.00;9.75;;;;;11.50;74.42;100047.03;5119390;27;45511;-82
2021/12/24 09:00:29;;;;;;;;;9.50;9.25;;;;;11.53;74.47;100048.59;5118251;27;47672;-80
2021/12/24 09:02:54;;;;;;;;;11.25;10.50;;;;;11.54;74.53;100048.47;5118105;27;46042;-78
2021/12/24 09:05:20;;;;;;;;;10.50;9.75;;;;;11.57;74.60;100045.56;5118481;27;45657;-80
2021/12/24 09:07:46;;;;;;;;;11.00;10.00;;;;;11.41;74.48;100020.75;5118447;27;45538;-79
2021/12/24 09:10:13;;;;;;;;;9.75;9.25;;;;;11.59;74.53;100056.78;5130716;27;46400;-79
2021/12/24 09:12:42;;;;;;;;;8.50;8.25;;;;;11.61;74.54;100054.00;5139044;27;46046;-79
2021/12/24 09:15:08;;;;;;;;;10.25;8.50;;;;;11.62;74.61;100055.69;5139082;27;45730;-81
2021/12/24 09:17:34;;;;;;;;;10.00;10.00;;;;;11.56;74.57;100041.28;5138808;27;45625;-77
2021/12/24 09:19:59;;;;;;;;;11.00;10.50;;;;;11.55;74.52;100037.00;5138877;27;45631;-80
2021/12/24 09:25:46;;;;;;;;;9.00;8.75;;;;;11.56;74.67;100036.03;5138208;27;45744;-78
2021/12/24 09:28:12;;;;;;;;;11.75;10.50;;;;;11.64;74.79;100051.97;5139041;27;45563;-80
2021/12/24 09:30:38;;;;;;;;;10.25;9.25;;;;;11.69;74.63;100060.28;5138358;27;46051;-78
2021/12/24 09:33:04;;;;;;;;;9.25;9.25;;;;;11.70;74.71;100058.50;5138102;27;45994;-77
2021/12/24 09:35:30;;;;;;;;;9.25;9.00;;;;;11.65;74.78;100056.28;5139126;27;45509;-77
2021/12/24 09:41:17;;;;;;;;;13.50;11.75;;;;;11.61;74.81;100046.13;5138472;27;45825;-79
2021/12/24 09:43:43;;;;;;;;;10.75;10.00;;;;;11.68;74.92;100047.28;5138135;27;45640;-78
2021/12/24 09:46:08;;;;;;;;;11.75;10.00;;;;;11.67;74.85;100032.50;5139382;27;45603;-79
2021/12/24 09:48:34;;;;;;;;;11.00;10.00;;;;;11.68;74.93;100023.69;5139250;27;45668;-77
2021/12/24 09:50:59;;;;;;;;;14.00;11.00;;;;;11.78;74.87;100029.84;5138041;27;46484;-78
2021/12/24 09:53:25;;;;;;;;;11.25;10.00;;;;;11.74;74.88;100029.28;5137798;27;45557;-79
2021/12/24 09:55:50;;;;;;;;;13.75;11.00;;;;;11.85;74.74;100040.66;5138233;27;45563;-80
2021/12/24 09:58:16;;;;;;;;;12.25;11.00;;;;;11.88;74.87;100045.63;5138645;27;45558;-79
2021/12/24 10:00:41;;;;;;;;;12.25;10.75;;;;;11.93;74.90;100046.09;5137959;27;45548;-77
2021/12/24 10:03:06;;;;;;;;;14.50;11.00;;;;;11.95;74.95;100044.13;5138113;27;46468;-80
2021/12/24 10:05:37;;;;;;;;;16.00;12.00;;;;;11.98;74.73;100030.78;5137963;27;45524;-78
2021/12/24 10:11:29;;;;;;;;;12.25;11.00;;;;;12.06;75.00;100034.38;5136132;27;45735;-81
2021/12/24 10:14:02;;;;;;;;;16.50;11.50;;;;;12.10;74.87;100027.91;5137839;27;45993;-81
2021/12/24 10:16:28;;;;;;;;;13.00;12.25;;;;;12.05;75.05;100005.63;5136560;27;45628;-81
2021/12/24 10:18:55;;;;;;;;;13.00;12.75;;;;;12.10;75.10;100012.13;5118741;27;45919;-78
2021/12/24 10:21:24;;;;;;;;;11.75;10.50;;;;;12.20;75.07;100023.50;5137572;27;45564;-79
2021/12/24 10:23:57;;;;;;;;;13.50;11.50;;;;;12.22;74.80;100031.25;5136468;27;47101;-80
2021/12/24 10:26:31;;;;;;;;;13.75;9.75;;;;;12.23;74.83;100019.78;5136945;27;45614;-76
2021/12/24 10:29:08;;;;;;;;;11.25;10.50;;;;;12.23;74.79;100018.97;5137636;27;45627;-80
2021/12/24 10:31:50;;;;;;;;;16.75;11.00;;;;;12.19;74.94;100007.91;5137153;27;47504;-79
2021/12/24 10:34:21;;;;;;;;;13.50;12.50;;;;;12.17;75.16;100009.81;5137552;27;46050;-78
2021/12/24 10:36:51;;;;;;;;;12.25;11.00;;;;;12.13;75.00;100003.19;5137648;27;45539;-80
2021/12/24 10:39:17;;;;;;;;;14.75;10.75;;;;;12.13;75.08;99998.75;5138205;27;45457;-80
2021/12/24 10:41:46;;;;;;;;;12.75;10.50;;;;;12.15;75.23;99993.34;5137210;27;46591;-77
2021/12/24 10:44:25;;;;;;;;;14.00;10.75;;;;;12.15;75.13;99985.47;5118239;27;47327;-81
2021/12/24 10:47:19;;;;;;;;;11.25;9.50;;;;;12.17;74.89;99991.44;5136812;27;45780;-78
2021/12/24 10:50:14;;;;;;;;;11.25;10.50;;;;;12.19;74.99;99995.59;5136202;27;45815;-80
2021/12/24 10:53:12;;;;;;;;;12.00;8.50;;;;;12.17;75.00;99981.75;5135646;27;45597;-77
2021/12/24 10:55:44;;;;;;;;;10.00;9.00;;;;;12.26;74.89;99987.16;5136909;27;46113;-78
2021/12/24 10:58:18;;;;;;;;;9.00;8.00;;;;;12.25;75.08;99986.34;5137004;27;45779;-76
2021/12/24 11:00:51;;;;;;;;;11.25;9.25;;;;;12.30;74.94;99991.19;5137507;27;45621;-78
2021/12/24 11:03:24;;;;;;;;;11.75;10.50;;;;;12.27;74.96;99971.28;5136754;27;47415;-80
2021/12/24 11:06:03;;;;;;;;;13.00;12.00;;;;;12.35;75.16;99974.06;5136717;27;46345;-85
2021/12/24 11:08:29;;;;;;;;;10.75;10.50;;;;;12.38;75.09;99962.44;5121118;27;45351;-81
2021/12/24 11:10:59;;;;;;;;;17.25;12.00;;;;;12.36;74.76;99949.44;5139496;27;45937;-82
2021/12/24 11:13:35;;;;;;;;;14.75;12.00;;;;;12.40;74.92;99958.72;5140985;27;45516;-81
2021/12/24 11:16:06;;;;;;;;;13.75;12.50;;;;;12.48;75.04;99952.78;5141418;27;46971;-82
2021/12/24 11:18:35;;;;;;;;;15.25;13.75;;;;;12.49;74.80;99944.75;5121558;27;45743;-77
2021/12/24 11:21:06;;;;;;;;;12.00;11.75;;;;;12.41;74.79;99920.16;5138789;27;45658;-82
2021/12/24 11:23:33;;;;;;;;;11.00;11.00;;;;;12.54;74.94;99937.28;5137763;27;46556;-84
2021/12/24 11:26:11;;;;;;;;;11.00;10.75;;;;;12.56;74.89;99931.91;5137426;27;46256;-85
2021/12/24 11:28:38;;;;;;;;;13.75;13.00;;;;;12.58;74.67;99930.78;5137850;27;45765;-85
2021/12/24 11:31:14;;;;;;;;;15.25;10.75;;;;;12.60;74.70;99930.66;5139155;27;45579;-85
2021/12/24 11:33:42;;;;;;;;;11.00;11.00;;;;;12.61;74.77;99933.16;5138036;27;46543;-82
2021/12/24 11:36:10;;;;;;;;;13.25;11.75;;;;;12.50;74.75;99909.66;5138482;27;46205;-77
2021/12/24 11:38:42;;;;;;;;;10.50;10.00;;;;;12.61;74.93;99922.66;5140472;27;45613;-87
2021/12/24 11:41:13;;;;;;;;;14.25;12.25;;;;;12.63;74.63;99921.69;5151559;27;45777;-87
2021/12/24 11:43:42;;;;;;;;;12.00;12.00;;;;;12.63;74.53;99919.06;5151033;27;45510;-84
2021/12/24 11:46:10;;;;;;;;;12.00;11.75;;;;;12.58;74.49;99915.03;5145292;27;45357;-85
2021/12/24 11:48:36;;;;;;;;;12.00;10.75;;;;;12.63;74.72;99929.56;5140325;27;45737;-88
2021/12/24 11:51:09;;;;;;;;;13.50;12.75;;;;;12.62;74.90;99931.34;5140099;27;45672;-82
2021/12/24 11:53:36;;;;;;;;;16.00;11.25;;;;;12.61;75.10;99932.31;5120154;27;48260;-81
2021/12/24 11:56:05;;;;;;;;;11.75;10.50;;;;;12.59;74.57;99929.81;5136982;27;46281;-80
2021/12/24 11:58:32;;;;;;;;;12.75;11.00;;;;;12.61;74.58;99932.31;5136673;27;45864;-80
2021/12/24 12:01:03;;;;;;;;;13.50;12.50;;;;;12.62;74.58;99928.72;5135682;27;45683;-76
2021/12/24 12:03:42;;;;;;;;;11.50;9.00;;;;;12.62;74.75;99928.72;5136554;27;45539;-80
2021/12/24 12:06:32;;;;;;;;;15.25;11.50;;;;;12.56;74.95;99929.28;5136075;27;45995;-78
2021/12/24 12:09:07;;;;;;;;;13.25;11.75;;;;;12.53;74.58;99924.28;5136029;27;45654;-78
2021/12/24 12:11:35;;;;;;;;;15.75;13.75;;;;;12.51;74.81;99923.63;5135883;27;45543;-79
2021/12/24 12:14:11;;;;;;;;;14.00;12.00;;;;;12.50;74.55;99929.84;5135992;27;46379;-78
2021/12/24 12:16:39;;;;;;;;;15.50;12.50;;;;;12.48;74.70;99934.38;5135171;27;46027;-81
2021/12/24 12:19:26;;;;;;;;;13.25;12.25;;;;;12.44;74.99;99943.50;5135883;27;45739;-83
2021/12/24 12:25:36;;;;;;;;;14.25;11.75;;;;;12.31;75.22;99932.47;5051621;28;46410;-80
2021/12/24 12:28:05;;;;;;;;;13.00;12.00;;;;;12.26;74.83;99932.84;5051514;28;46906;-80
2021/12/24 12:30:39;;;;;;;;;14.50;13.75;;;;;12.25;75.03;99933.84;5035178;28;45811;-77
2021/12/24 12:33:17;;;;;;;;;11.50;11.25;;;;;12.24;75.29;99929.53;5051460;28;45600;-81
2021/12/24 12:35:45;;;;;;;;;14.25;12.50;;;;;12.25;75.18;99931.19;5051200;28;45687;-80
2021/12/24 12:41:35;;;;;;;;;16.25;14.25;;;;;12.27;75.10;99904.78;5051729;28;45763;-79
2021/12/24 12:44:11;;;;;;;;;17.50;14.75;;;;;12.29;75.12;99903.69;5052170;28;45794;-80
2021/12/24 12:46:40;;;;;;;;;17.00;12.00;;;;;12.32;75.10;99905.19;5052062;28;46514;-80
2021/12/24 12:49:08;;;;;;;;;16.75;12.75;;;;;12.33;74.89;99904.25;5051688;28;46054;-78
2021/12/24 12:52:00;;;;;;;;;15.00;13.75;;;;;12.38;75.02;99900.22;5033901;28;45933;-78
2021/12/24 12:57:47;;;;;;;;;15.75;13.25;;;;;12.47;75.01;99888.88;4990292;28;45838;-75
2021/12/24 13:00:19;;;;;;;;;16.50;14.75;;;;;12.51;74.83;99879.78;5018325;28;45655;-77
2021/12/24 13:03:17;;;;;;;;;15.25;15.25;;;;;12.56;75.06;99877.56;5071094;28;45857;-76
2021/12/24 13:05:42;;;;;;;;;18.00;14.00;;;;;12.60;75.17;99878.94;5070697;28;45767;-78
2021/12/24 13:08:20;;;;;;;;;15.50;11.50;;;;;12.62;75.05;99881.44;5071397;28;45762;-77
2021/12/24 13:11:16;;;;;;;;;16.75;13.00;;;;;12.61;75.03;99877.13;5070940;28;45717;-78
2021/12/24 13:13:51;;;;;;;;;16.00;14.75;;;;;12.58;74.82;99869.50;5056322;28;45783;-81
2021/12/24 13:16:18;;;;;;;;;18.00;15.50;;;;;12.67;75.13;99881.00;5074708;28;45625;-82
2021/12/24 13:18:52;;;;;;;;;19.50;17.75;;;;;12.68;75.29;99873.00;5074747;28;46451;-80
2021/12/24 13:24:09;;;;;;;;;13.50;11.50;;;;;12.70;74.76;99881.53;5074216;28;45601;-79
2021/12/24 13:26:35;;;;;;;;;19.50;17.00;;;;;12.70;75.21;99884.16;5074083;28;45667;-80
2021/12/24 13:29:11;;;;;;;;;13.75;11.25;;;;;12.69;75.22;99873.78;5074230;28;46224;-77
2021/12/24 13:31:36;;;;;;;;;5.00;4.00;;;;;12.67;74.90;99855.56;5111936;27;46437;-77
2021/12/24 13:34:10;;;;;;;;;11.00;10.00;;;;;12.67;74.74;99852.94;5138264;27;45692;-79
2021/12/24 13:36:35;;;;;;;;;14.00;12.00;;;;;12.70;75.23;99857.06;5137901;27;45758;-78
2021/12/24 13:39:10;;;;;;;;;13.25;11.25;;;;;12.70;74.90;99868.41;5137696;27;45601;-75
2021/12/24 13:41:36;;;;;;;;;10.50;6.25;;;;;12.70;74.75;99852.63;5137551;27;47193;-79
2021/12/24 13:44:01;;;;;;;;;10.00;9.50;;;;;12.64;74.93;99840.06;5138025;27;45621;-79
2021/12/24 13:46:32;;;;;;;;;17.50;11.50;;;;;12.69;74.91;99850.13;5137602;27;45433;-78
2021/12/24 13:49:16;;;;;;;;;9.25;8.25;;;;;12.65;74.93;99848.78;5137936;27;45656;-77
2021/12/24 13:54:35;;;;;;;;;14.25;10.00;;;;;12.60;74.90;99862.34;5138222;27;45713;-79